Revere, MN (56166)

5:28 AM CDT on April 27, 2015 (GMT -0500)
300th st | Change Station
CLOSE
Current Station
Personal Weather Station
Location: Westbrook, MN
Elevation: 1430 ft
Nearby Weather Stations

Elev 1430 ft 44.05 °N, 95.44 °W | Updated 10 seconds ago

Clear
Clear
36.9 °F
Feels Like 37 °F
N
0.0
Wind Variable Wind from North
Gusts 0.7 mph

Today
High -- | Low -- °F
--% Chance of Precip.
Yesterday
High -- | Low -- °F
Precip. -- in
6:18 AM 8:20 PM
Waxing Gibbous, 64% visible
Pressure 30.19 in
Visibility 10.0 miles
Clouds Clear
Windchill 37 °F
Dew Point 19 °F
Humidity 48%
Rainfall 0.00 in
Snow Depth Not available.
UV 0 out of 12
Pollen 10.50 out of 12
Air Quality Not available.
Flu Activity Local Activity
METAR KTKC 271012Z AUTO 00000KT 10SM CLR 03/M06 A3019 RMK AO2 T00301062

More Conditions Fewer Conditions

Pressure 30.19 in
Visibility 10.0 miles
Clouds Clear
Windchill 37 °F
Dew Point 19 °F
Humidity 48%
Rainfall 0.00 in
Snow Depth Not available.
UV 0 out of 12
Pollen 10.50 out of 12
Air Quality Not available.
Flu Activity Local Activity
METAR KTKC 271012Z AUTO 00000KT 10SM CLR 03/M06 A3019 RMK AO2 T00301062

More Conditions Fewer Conditions

10-Day Weather Forecast

Almanac

Astronomy

Apr. 27, 2015 Rise Set
Actual Time 6:18 AM CDT 8:20 PM CDT
Civil Twilight 5:47 AM CDT 8:51 PM CDT
Nautical Twilight 5:09 AM CDT 9:30 PM CDT
Astronomical Twilight 4:26 AM CDT 10:12 PM CDT
Moon 2:16 PM CDT 3:13 AM CDT
Length of Visible Light 15h 04m
Length of Day
14h 01m
Tomorrow will be 2m 44s longer.
Waxing Gibbous, 64% of the Moon is Illuminated
Today
Waxing Gibbous
May 3
Full
May 11
Last Quarter
May 18
New
May 25
First Quarter

Today's Extremes

State Highs State Lows

Community

WunderPhotos

Upload Photos

1,817,278 photos uploaded!

Nearby

Snow Depth

Station Depth Elevation
No new snow has been reported.

Earthquake Activity

City Distance Mag. Time & Date
No recent earthquake activity has been reported nearby.
Minimum magnitude displayed is 2.5.

Coastal Water Temperatures

Place Temperature
No Stations Reporting

Nearby Weather Stations